Aérodrome :
LOGIN :

S'inscrire | Disclaimer

   EN    FR    IT 

 










Légende :    VFR   VFR Marginal   IFR   IFR Intensif   IFR Très Intensif
Visi : 
Plafond : 
>= 8 km
>= 3000ft
5 à 8 km
1000 à 3000 ft
1500m à 5 km
500 à 1000 ft
800 à 1500m
200 à 500 ft
< 800m
< 200 ft
Symboles :   Orages  Brouillard  Fortes neiges  Fortes précipitations  Vent > 20 kt
SIGMETs :   Divers  Orages  Givrage  Turbulence  Onde Orograph.  Cendres Volcan.







- Altitude de l'aérodrome : 479 ft
- Code IATA : DOL
- Voir les cartes d'approche


LFRG - Deauville

DERNIER METAR :
  • 222130Z AUTO 15003KT 110V180 9999 -RA BKN013/// OVC023/// ///TCU 06/05 Q1008

METARs EXPIRÉS :
  • 222100Z AUTO VRB02KT 9999 -RA OVC010/// ///TCU 06/04 Q1008 TEMPO 3000 TSRAGS BKN012CB
  • 222030Z AUTO 05003KT 020V080 9999 -RA BKN012 BKN023 OVC031 06/04 Q1008 TEMPO 3000 TSRAGS BKN012CB
  • 222000Z AUTO 00000KT 6000 RA SCT018/// SCT026/// BKN033/// ///TCU 06/04 Q1008 TEMPO 3000 TSRAGS BKN012CB
  • 221930Z AUTO VRB02KT 9999 BKN021/// BKN028/// BKN037/// ///TCU 06/04 Q1008 TEMPO 3000 TSRAGS BKN012CB
  • 221900Z AUTO 30001KT 7000 -RA BKN023 OVC036 06/04 Q1008 TEMPO 3000 TSRAGS BKN012CB

TAF TAF LFRG
Valide du 22 à 15h jusqu'au 23 à 00h UTC


221400Z 2215/2224 15005KT 9999 BKN020
TEMPO 2215/2224 5000 SHRA BKN015TCU
PROB30
TEMPO 2215/2224 3000 TSRAGS BKN012CB
ATIS : +33 2 31 65 65 36
Pas de NOTAMs connus pour ce terrain.



MET'MAP, la Météo Aéronautique d'un coup d'oeil ! - Copyright ORBIFLY Décembre 2007 - Disclaimer

ORBIFLY MET'MAP TEAM :

Programmation & Développement : Alexandra Zaïnal
Conception & Développement : Baudouin d'Aumeries
Co-Programmation & Développement : Marc-Olivier Méhu
Soutien technique & logistique : Manuel Goepfert

Contact : metmap@orbifly.com




SOURCES & CREDITS :

   NOAA